sensor_id;sensor_type;location;lat;lon;timestamp;P1;durP1;ratioP1;P2;durP2;ratioP2
72464;SDS011;60471;52.150;4.508;2023-07-24T00:02:20;11.90;;;5.50;;
72464;SDS011;60471;52.150;4.508;2023-07-24T00:04:46;13.82;;;5.20;;
72464;SDS011;60471;52.150;4.508;2023-07-24T00:07:13;11.02;;;5.30;;
72464;SDS011;60471;52.150;4.508;2023-07-24T00:09:39;12.82;;;5.25;;
72464;SDS011;60471;52.150;4.508;2023-07-24T00:12:05;12.63;;;4.97;;
72464;SDS011;60471;52.150;4.508;2023-07-24T00:14:32;11.93;;;5.20;;
72464;SDS011;60471;52.150;4.508;2023-07-24T00:16:58;11.02;;;5.50;;
72464;SDS011;60471;52.150;4.508;2023-07-24T00:19:25;11.52;;;5.25;;
72464;SDS011;60471;52.150;4.508;2023-07-24T00:21:51;15.05;;;5.75;;
72464;SDS011;60471;52.150;4.508;2023-07-24T00:24:17;12.18;;;5.55;;
72464;SDS011;60471;52.150;4.508;2023-07-24T00:26:43;13.38;;;5.47;;
72464;SDS011;60471;52.150;4.508;2023-07-24T00:29:09;16.73;;;5.85;;
72464;SDS011;60471;52.150;4.508;2023-07-24T00:31:36;16.02;;;5.45;;
72464;SDS011;60471;52.150;4.508;2023-07-24T00:34:02;13.60;;;4.97;;
72464;SDS011;60471;52.150;4.508;2023-07-24T00:36:28;13.95;;;5.30;;
72464;SDS011;60471;52.150;4.508;2023-07-24T00:38:54;15.85;;;5.93;;
72464;SDS011;60471;52.150;4.508;2023-07-24T00:41:20;13.15;;;6.05;;
72464;SDS011;60471;52.150;4.508;2023-07-24T00:43:46;12.40;;;5.25;;
72464;SDS011;60471;52.150;4.508;2023-07-24T00:46:13;13.18;;;5.63;;
72464;SDS011;60471;52.150;4.508;2023-07-24T00:48:40;14.10;;;6.15;;
72464;SDS011;60471;52.150;4.508;2023-07-24T00:51:06;13.52;;;6.22;;
72464;SDS011;60471;52.150;4.508;2023-07-24T00:53:33;12.48;;;6.80;;
72464;SDS011;60471;52.150;4.508;2023-07-24T00:55:59;15.02;;;5.97;;
72464;SDS011;60471;52.150;4.508;2023-07-24T00:58:26;13.20;;;5.85;;
72464;SDS011;60471;52.150;4.508;2023-07-24T01:00:52;13.73;;;6.13;;
72464;SDS011;60471;52.150;4.508;2023-07-24T01:03:18;15.68;;;6.40;;
72464;SDS011;60471;52.150;4.508;2023-07-24T01:05:45;14.13;;;6.82;;
72464;SDS011;60471;52.150;4.508;2023-07-24T01:08:11;16.00;;;6.90;;
72464;SDS011;60471;52.150;4.508;2023-07-24T01:10:37;15.15;;;7.40;;
72464;SDS011;60471;52.150;4.508;2023-07-24T01:13:16;13.85;;;6.68;;
72464;SDS011;60471;52.150;4.508;2023-07-24T01:15:54;16.35;;;7.10;;
72464;SDS011;60471;52.150;4.508;2023-07-24T01:18:36;16.98;;;7.30;;
72464;SDS011;60471;52.150;4.508;2023-07-24T01:21:05;15.95;;;6.75;;
72464;SDS011;60471;52.150;4.508;2023-07-24T01:26:45;13.40;;;7.22;;
72464;SDS011;60471;52.150;4.508;2023-07-24T01:29:12;14.55;;;6.88;;
72464;SDS011;60471;52.150;4.508;2023-07-24T01:31:38;14.40;;;6.43;;
72464;SDS011;60471;52.150;4.508;2023-07-24T01:34:04;13.70;;;6.85;;
72464;SDS011;60471;52.150;4.508;2023-07-24T01:36:30;15.13;;;6.53;;
72464;SDS011;60471;52.150;4.508;2023-07-24T01:38:57;13.85;;;6.40;;
72464;SDS011;60471;52.150;4.508;2023-07-24T01:41:24;16.55;;;6.50;;
72464;SDS011;60471;52.150;4.508;2023-07-24T01:43:51;14.82;;;6.38;;
72464;SDS011;60471;52.150;4.508;2023-07-24T01:46:17;18.58;;;6.47;;
72464;SDS011;60471;52.150;4.508;2023-07-24T01:48:44;13.13;;;5.60;;
72464;SDS011;60471;52.150;4.508;2023-07-24T01:51:11;19.75;;;6.07;;
72464;SDS011;60471;52.150;4.508;2023-07-24T01:53:37;19.05;;;5.80;;
72464;SDS011;60471;52.150;4.508;2023-07-24T01:56:04;18.73;;;5.72;;
72464;SDS011;60471;52.150;4.508;2023-07-24T01:58:30;16.00;;;5.93;;
72464;SDS011;60471;52.150;4.508;2023-07-24T02:00:56;13.60;;;5.50;;
72464;SDS011;60471;52.150;4.508;2023-07-24T02:03:22;15.60;;;5.35;;
72464;SDS011;60471;52.150;4.508;2023-07-24T02:05:49;16.23;;;4.95;;
72464;SDS011;60471;52.150;4.508;2023-07-24T02:08:17;12.75;;;4.93;;
72464;SDS011;60471;52.150;4.508;2023-07-24T02:10:43;16.05;;;5.00;;
72464;SDS011;60471;52.150;4.508;2023-07-24T02:13:09;17.02;;;5.38;;
72464;SDS011;60471;52.150;4.508;2023-07-24T02:15:36;16.67;;;5.75;;
72464;SDS011;60471;52.150;4.508;2023-07-24T02:18:02;17.75;;;6.32;;
72464;SDS011;60471;52.150;4.508;2023-07-24T02:20:28;15.07;;;5.25;;
72464;SDS011;60471;52.150;4.508;2023-07-24T02:22:54;14.93;;;5.53;;
72464;SDS011;60471;52.150;4.508;2023-07-24T02:25:21;16.58;;;5.57;;
72464;SDS011;60471;52.150;4.508;2023-07-24T02:27:47;15.07;;;5.47;;
72464;SDS011;60471;52.150;4.508;2023-07-24T02:30:13;15.43;;;5.50;;
72464;SDS011;60471;52.150;4.508;2023-07-24T02:32:40;14.40;;;5.80;;
72464;SDS011;60471;52.150;4.508;2023-07-24T02:35:06;14.73;;;5.45;;
72464;SDS011;60471;52.150;4.508;2023-07-24T02:37:33;14.40;;;5.28;;
72464;SDS011;60471;52.150;4.508;2023-07-24T02:39:59;20.83;;;5.50;;
72464;SDS011;60471;52.150;4.508;2023-07-24T02:42:25;17.17;;;5.47;;
72464;SDS011;60471;52.150;4.508;2023-07-24T02:44:51;16.20;;;5.60;;
72464;SDS011;60471;52.150;4.508;2023-07-24T02:47:18;13.27;;;5.15;;
72464;SDS011;60471;52.150;4.508;2023-07-24T02:49:45;14.52;;;5.15;;
72464;SDS011;60471;52.150;4.508;2023-07-24T02:52:11;18.35;;;4.95;;
72464;SDS011;60471;52.150;4.508;2023-07-24T02:54:37;13.48;;;4.68;;
72464;SDS011;60471;52.150;4.508;2023-07-24T02:57:03;15.07;;;5.70;;
72464;SDS011;60471;52.150;4.508;2023-07-24T02:59:30;12.55;;;5.20;;
72464;SDS011;60471;52.150;4.508;2023-07-24T03:01:57;17.48;;;5.25;;
72464;SDS011;60471;52.150;4.508;2023-07-24T03:04:24;15.05;;;4.95;;
72464;SDS011;60471;52.150;4.508;2023-07-24T03:06:50;16.13;;;5.78;;
72464;SDS011;60471;52.150;4.508;2023-07-24T03:09:16;20.90;;;5.63;;
72464;SDS011;60471;52.150;4.508;2023-07-24T03:11:42;20.02;;;5.28;;
72464;SDS011;60471;52.150;4.508;2023-07-24T03:14:09;16.05;;;5.57;;
72464;SDS011;60471;52.150;4.508;2023-07-24T03:16:36;14.00;;;5.35;;
72464;SDS011;60471;52.150;4.508;2023-07-24T03:19:02;18.52;;;5.63;;
72464;SDS011;60471;52.150;4.508;2023-07-24T03:21:28;17.88;;;5.25;;
72464;SDS011;60471;52.150;4.508;2023-07-24T03:23:54;15.77;;;5.25;;
72464;SDS011;60471;52.150;4.508;2023-07-24T03:26:20;16.80;;;5.47;;
72464;SDS011;60471;52.150;4.508;2023-07-24T03:28:47;19.63;;;6.00;;
72464;SDS011;60471;52.150;4.508;2023-07-24T03:31:13;17.88;;;5.57;;
72464;SDS011;60471;52.150;4.508;2023-07-24T03:33:39;19.63;;;5.35;;
72464;SDS011;60471;52.150;4.508;2023-07-24T03:36:05;16.10;;;5.40;;
72464;SDS011;60471;52.150;4.508;2023-07-24T03:38:32;18.88;;;5.47;;
72464;SDS011;60471;52.150;4.508;2023-07-24T03:40:58;15.82;;;5.68;;
72464;SDS011;60471;52.150;4.508;2023-07-24T03:43:24;18.02;;;5.80;;
72464;SDS011;60471;52.150;4.508;2023-07-24T03:45:50;17.38;;;5.78;;
72464;SDS011;60471;52.150;4.508;2023-07-24T03:48:16;17.52;;;5.13;;
72464;SDS011;60471;52.150;4.508;2023-07-24T03:50:43;20.70;;;5.80;;
72464;SDS011;60471;52.150;4.508;2023-07-24T03:53:09;19.55;;;6.07;;
72464;SDS011;60471;52.150;4.508;2023-07-24T03:55:35;19.20;;;5.88;;
72464;SDS011;60471;52.150;4.508;2023-07-24T03:58:01;14.57;;;5.90;;
72464;SDS011;60471;52.150;4.508;2023-07-24T04:00:27;22.27;;;6.47;;
72464;SDS011;60471;52.150;4.508;2023-07-24T04:02:54;16.65;;;5.55;;
72464;SDS011;60471;52.150;4.508;2023-07-24T04:05:20;19.52;;;5.50;;
72464;SDS011;60471;52.150;4.508;2023-07-24T04:07:46;16.90;;;5.78;;
72464;SDS011;60471;52.150;4.508;2023-07-24T04:10:12;15.98;;;6.13;;
72464;SDS011;60471;52.150;4.508;2023-07-24T04:12:39;21.08;;;6.03;;
72464;SDS011;60471;52.150;4.508;2023-07-24T04:15:05;15.73;;;5.30;;
72464;SDS011;60471;52.150;4.508;2023-07-24T04:17:32;15.30;;;5.72;;
72464;SDS011;60471;52.150;4.508;2023-07-24T04:19:58;20.55;;;6.15;;
72464;SDS011;60471;52.150;4.508;2023-07-24T04:22:28;18.85;;;5.70;;
72464;SDS011;60471;52.150;4.508;2023-07-24T04:24:55;13.85;;;5.13;;
72464;SDS011;60471;52.150;4.508;2023-07-24T04:27:21;18.25;;;6.22;;
72464;SDS011;60471;52.150;4.508;2023-07-24T04:29:47;21.00;;;5.50;;
72464;SDS011;60471;52.150;4.508;2023-07-24T04:32:14;17.58;;;6.38;;
72464;SDS011;60471;52.150;4.508;2023-07-24T04:34:40;17.33;;;6.32;;
72464;SDS011;60471;52.150;4.508;2023-07-24T04:37:06;18.00;;;5.80;;
72464;SDS011;60471;52.150;4.508;2023-07-24T04:39:32;21.25;;;6.35;;
72464;SDS011;60471;52.150;4.508;2023-07-24T04:41:59;19.63;;;6.22;;
72464;SDS011;60471;52.150;4.508;2023-07-24T04:44:25;17.20;;;6.07;;
72464;SDS011;60471;52.150;4.508;2023-07-24T04:46:51;18.00;;;5.80;;
72464;SDS011;60471;52.150;4.508;2023-07-24T04:49:18;16.48;;;5.72;;
72464;SDS011;60471;52.150;4.508;2023-07-24T04:51:44;22.48;;;7.03;;
72464;SDS011;60471;52.150;4.508;2023-07-24T04:54:10;18.20;;;5.45;;
72464;SDS011;60471;52.150;4.508;2023-07-24T04:56:36;17.20;;;5.63;;
72464;SDS011;60471;52.150;4.508;2023-07-24T04:59:02;17.02;;;5.63;;
72464;SDS011;60471;52.150;4.508;2023-07-24T05:01:29;18.17;;;6.35;;
72464;SDS011;60471;52.150;4.508;2023-07-24T05:03:55;17.95;;;5.68;;
72464;SDS011;60471;52.150;4.508;2023-07-24T05:06:21;17.73;;;6.35;;
72464;SDS011;60471;52.150;4.508;2023-07-24T05:08:47;19.10;;;5.43;;
72464;SDS011;60471;52.150;4.508;2023-07-24T05:11:13;21.83;;;5.75;;
72464;SDS011;60471;52.150;4.508;2023-07-24T05:13:40;22.08;;;6.22;;
72464;SDS011;60471;52.150;4.508;2023-07-24T05:16:06;17.35;;;5.60;;
72464;SDS011;60471;52.150;4.508;2023-07-24T05:18:32;24.67;;;6.13;;
72464;SDS011;60471;52.150;4.508;2023-07-24T05:20:58;16.85;;;6.45;;
72464;SDS011;60471;52.150;4.508;2023-07-24T05:23:25;16.77;;;5.22;;
72464;SDS011;60471;52.150;4.508;2023-07-24T05:25:57;18.92;;;5.10;;
72464;SDS011;60471;52.150;4.508;2023-07-24T05:28:28;21.38;;;5.20;;
72464;SDS011;60471;52.150;4.508;2023-07-24T05:30:56;19.37;;;5.50;;
72464;SDS011;60471;52.150;4.508;2023-07-24T05:33:29;22.30;;;6.03;;
72464;SDS011;60471;52.150;4.508;2023-07-24T05:35:57;23.90;;;5.78;;
72464;SDS011;60471;52.150;4.508;2023-07-24T05:38:25;23.38;;;5.85;;
72464;SDS011;60471;52.150;4.508;2023-07-24T05:40:58;18.40;;;6.07;;
72464;SDS011;60471;52.150;4.508;2023-07-24T05:43:27;15.88;;;5.25;;
72464;SDS011;60471;52.150;4.508;2023-07-24T05:45:56;23.58;;;5.65;;
72464;SDS011;60471;52.150;4.508;2023-07-24T05:48:23;16.08;;;5.70;;
72464;SDS011;60471;52.150;4.508;2023-07-24T05:50:50;20.48;;;5.63;;
72464;SDS011;60471;52.150;4.508;2023-07-24T05:53:17;18.67;;;6.20;;
72464;SDS011;60471;52.150;4.508;2023-07-24T05:55:43;18.67;;;5.80;;
72464;SDS011;60471;52.150;4.508;2023-07-24T05:58:09;20.45;;;5.75;;
72464;SDS011;60471;52.150;4.508;2023-07-24T06:00:36;17.65;;;5.07;;
72464;SDS011;60471;52.150;4.508;2023-07-24T06:03:02;14.73;;;4.97;;
72464;SDS011;60471;52.150;4.508;2023-07-24T06:05:29;20.38;;;5.68;;
72464;SDS011;60471;52.150;4.508;2023-07-24T06:07:55;16.10;;;5.80;;
72464;SDS011;60471;52.150;4.508;2023-07-24T06:10:21;15.63;;;5.78;;
72464;SDS011;60471;52.150;4.508;2023-07-24T06:12:47;18.95;;;5.57;;
72464;SDS011;60471;52.150;4.508;2023-07-24T06:15:14;18.45;;;5.65;;
72464;SDS011;60471;52.150;4.508;2023-07-24T06:17:40;19.17;;;5.35;;
72464;SDS011;60471;52.150;4.508;2023-07-24T06:20:06;18.73;;;5.85;;
72464;SDS011;60471;52.150;4.508;2023-07-24T06:22:33;15.68;;;5.63;;
72464;SDS011;60471;52.150;4.508;2023-07-24T06:24:59;19.33;;;5.25;;
72464;SDS011;60471;52.150;4.508;2023-07-24T06:27:25;16.52;;;5.65;;
72464;SDS011;60471;52.150;4.508;2023-07-24T06:29:52;19.15;;;5.72;;
72464;SDS011;60471;52.150;4.508;2023-07-24T06:32:18;18.90;;;5.38;;
72464;SDS011;60471;52.150;4.508;2023-07-24T06:34:44;22.67;;;6.68;;
72464;SDS011;60471;52.150;4.508;2023-07-24T06:37:10;19.27;;;5.68;;
72464;SDS011;60471;52.150;4.508;2023-07-24T06:39:36;18.70;;;6.35;;
72464;SDS011;60471;52.150;4.508;2023-07-24T06:42:03;15.70;;;5.68;;
72464;SDS011;60471;52.150;4.508;2023-07-24T06:44:29;17.98;;;5.65;;
72464;SDS011;60471;52.150;4.508;2023-07-24T06:46:55;19.85;;;6.47;;
72464;SDS011;60471;52.150;4.508;2023-07-24T06:49:22;18.40;;;6.07;;
72464;SDS011;60471;52.150;4.508;2023-07-24T06:51:48;18.38;;;6.43;;
72464;SDS011;60471;52.150;4.508;2023-07-24T06:54:14;19.75;;;6.15;;
72464;SDS011;60471;52.150;4.508;2023-07-24T06:56:40;18.52;;;6.22;;
72464;SDS011;60471;52.150;4.508;2023-07-24T06:59:06;14.57;;;5.25;;
72464;SDS011;60471;52.150;4.508;2023-07-24T07:01:33;17.30;;;5.63;;
72464;SDS011;60471;52.150;4.508;2023-07-24T07:03:59;18.83;;;5.80;;
72464;SDS011;60471;52.150;4.508;2023-07-24T07:06:25;20.38;;;5.70;;
72464;SDS011;60471;52.150;4.508;2023-07-24T07:08:52;20.27;;;6.40;;
72464;SDS011;60471;52.150;4.508;2023-07-24T07:11:18;19.38;;;5.82;;
72464;SDS011;60471;52.150;4.508;2023-07-24T07:13:44;22.45;;;6.03;;
72464;SDS011;60471;52.150;4.508;2023-07-24T07:16:10;19.60;;;5.53;;
72464;SDS011;60471;52.150;4.508;2023-07-24T07:18:36;14.18;;;6.00;;
72464;SDS011;60471;52.150;4.508;2023-07-24T07:21:03;23.80;;;6.07;;
72464;SDS011;60471;52.150;4.508;2023-07-24T07:23:29;18.52;;;6.18;;
72464;SDS011;60471;52.150;4.508;2023-07-24T07:25:56;15.43;;;5.25;;
72464;SDS011;60471;52.150;4.508;2023-07-24T07:28:22;23.77;;;6.10;;
72464;SDS011;60471;52.150;4.508;2023-07-24T07:30:48;12.88;;;5.07;;
72464;SDS011;60471;52.150;4.508;2023-07-24T07:33:14;16.33;;;4.85;;
72464;SDS011;60471;52.150;4.508;2023-07-24T07:35:41;15.00;;;5.05;;
72464;SDS011;60471;52.150;4.508;2023-07-24T07:38:07;19.02;;;5.03;;
72464;SDS011;60471;52.150;4.508;2023-07-24T07:40:33;15.60;;;6.25;;
72464;SDS011;60471;52.150;4.508;2023-07-24T07:42:59;17.02;;;5.15;;
72464;SDS011;60471;52.150;4.508;2023-07-24T07:45:25;16.10;;;5.43;;
72464;SDS011;60471;52.150;4.508;2023-07-24T07:47:51;17.40;;;5.95;;
72464;SDS011;60471;52.150;4.508;2023-07-24T07:50:19;23.05;;;5.85;;
72464;SDS011;60471;52.150;4.508;2023-07-24T07:52:45;16.60;;;5.55;;
72464;SDS011;60471;52.150;4.508;2023-07-24T07:55:15;15.48;;;5.20;;
72464;SDS011;60471;52.150;4.508;2023-07-24T07:57:41;18.02;;;5.03;;
72464;SDS011;60471;52.150;4.508;2023-07-24T08:00:08;14.38;;;4.50;;
72464;SDS011;60471;52.150;4.508;2023-07-24T08:02:34;10.90;;;4.18;;
72464;SDS011;60471;52.150;4.508;2023-07-24T08:05:01;12.88;;;4.35;;
72464;SDS011;60471;52.150;4.508;2023-07-24T08:07:27;13.98;;;4.63;;
72464;SDS011;60471;52.150;4.508;2023-07-24T08:09:53;15.88;;;5.20;;
72464;SDS011;60471;52.150;4.508;2023-07-24T08:12:19;16.48;;;4.35;;
72464;SDS011;60471;52.150;4.508;2023-07-24T08:14:46;19.15;;;5.63;;
72464;SDS011;60471;52.150;4.508;2023-07-24T08:17:12;14.57;;;4.60;;
72464;SDS011;60471;52.150;4.508;2023-07-24T08:19:41;15.45;;;4.78;;
72464;SDS011;60471;52.150;4.508;2023-07-24T08:22:08;17.73;;;4.70;;
72464;SDS011;60471;52.150;4.508;2023-07-24T08:24:34;13.80;;;4.65;;
72464;SDS011;60471;52.150;4.508;2023-07-24T08:27:01;12.82;;;4.10;;
72464;SDS011;60471;52.150;4.508;2023-07-24T08:29:28;12.52;;;4.50;;
72464;SDS011;60471;52.150;4.508;2023-07-24T08:31:54;13.40;;;4.70;;
72464;SDS011;60471;52.150;4.508;2023-07-24T08:34:21;13.52;;;4.80;;
72464;SDS011;60471;52.150;4.508;2023-07-24T08:36:47;14.93;;;4.68;;
72464;SDS011;60471;52.150;4.508;2023-07-24T08:39:14;17.25;;;5.22;;
72464;SDS011;60471;52.150;4.508;2023-07-24T08:41:40;12.48;;;4.65;;
72464;SDS011;60471;52.150;4.508;2023-07-24T08:44:07;12.10;;;5.28;;
72464;SDS011;60471;52.150;4.508;2023-07-24T08:46:37;13.60;;;4.60;;
72464;SDS011;60471;52.150;4.508;2023-07-24T08:49:11;13.00;;;4.43;;
72464;SDS011;60471;52.150;4.508;2023-07-24T08:51:40;16.38;;;5.50;;
72464;SDS011;60471;52.150;4.508;2023-07-24T08:54:07;17.63;;;4.88;;
72464;SDS011;60471;52.150;4.508;2023-07-24T08:56:36;12.98;;;4.72;;
72464;SDS011;60471;52.150;4.508;2023-07-24T08:59:03;14.65;;;4.75;;
72464;SDS011;60471;52.150;4.508;2023-07-24T09:01:29;16.48;;;4.28;;
72464;SDS011;60471;52.150;4.508;2023-07-24T09:03:56;14.05;;;4.50;;
72464;SDS011;60471;52.150;4.508;2023-07-24T09:06:22;13.85;;;4.45;;
72464;SDS011;60471;52.150;4.508;2023-07-24T09:08:49;16.80;;;5.25;;
72464;SDS011;60471;52.150;4.508;2023-07-24T09:11:20;11.88;;;4.30;;
72464;SDS011;60471;52.150;4.508;2023-07-24T09:13:46;9.50;;;3.63;;
72464;SDS011;60471;52.150;4.508;2023-07-24T09:16:22;13.73;;;4.43;;
72464;SDS011;60471;52.150;4.508;2023-07-24T09:18:52;12.20;;;3.95;;
72464;SDS011;60471;52.150;4.508;2023-07-24T09:21:28;13.65;;;4.95;;
72464;SDS011;60471;52.150;4.508;2023-07-24T09:23:56;10.68;;;4.03;;
72464;SDS011;60471;52.150;4.508;2023-07-24T09:26:23;15.38;;;4.38;;
72464;SDS011;60471;52.150;4.508;2023-07-24T09:28:53;12.55;;;4.22;;
72464;SDS011;60471;52.150;4.508;2023-07-24T09:31:20;12.50;;;4.18;;
72464;SDS011;60471;52.150;4.508;2023-07-24T09:33:46;10.82;;;3.90;;
72464;SDS011;60471;52.150;4.508;2023-07-24T09:36:13;15.38;;;4.88;;
72464;SDS011;60471;52.150;4.508;2023-07-24T09:38:39;13.23;;;4.57;;
72464;SDS011;60471;52.150;4.508;2023-07-24T09:44:34;12.13;;;4.55;;
72464;SDS011;60471;52.150;4.508;2023-07-24T09:47:17;12.05;;;4.80;;
72464;SDS011;60471;52.150;4.508;2023-07-24T09:49:44;12.73;;;4.45;;
72464;SDS011;60471;52.150;4.508;2023-07-24T09:52:11;15.40;;;4.95;;
72464;SDS011;60471;52.150;4.508;2023-07-24T09:54:43;11.63;;;4.78;;
72464;SDS011;60471;52.150;4.508;2023-07-24T09:57:25;12.57;;;4.22;;
72464;SDS011;60471;52.150;4.508;2023-07-24T09:59:54;12.95;;;4.43;;
72464;SDS011;60471;52.150;4.508;2023-07-24T10:02:23;13.38;;;4.60;;
72464;SDS011;60471;52.150;4.508;2023-07-24T10:04:50;13.77;;;4.57;;
72464;SDS011;60471;52.150;4.508;2023-07-24T10:07:17;17.27;;;4.60;;
72464;SDS011;60471;52.150;4.508;2023-07-24T10:09:47;10.95;;;4.57;;
72464;SDS011;60471;52.150;4.508;2023-07-24T10:12:17;14.85;;;4.72;;
72464;SDS011;60471;52.150;4.508;2023-07-24T10:14:48;10.73;;;3.97;;
72464;SDS011;60471;52.150;4.508;2023-07-24T10:17:23;14.55;;;4.47;;
72464;SDS011;60471;52.150;4.508;2023-07-24T10:20:03;12.60;;;4.25;;
72464;SDS011;60471;52.150;4.508;2023-07-24T10:22:31;14.90;;;4.70;;
72464;SDS011;60471;52.150;4.508;2023-07-24T10:24:58;10.02;;;3.97;;
72464;SDS011;60471;52.150;4.508;2023-07-24T10:27:25;12.55;;;4.07;;
72464;SDS011;60471;52.150;4.508;2023-07-24T10:30:06;16.83;;;4.70;;
72464;SDS011;60471;52.150;4.508;2023-07-24T10:32:33;12.68;;;3.88;;
72464;SDS011;60471;52.150;4.508;2023-07-24T10:35:12;11.35;;;4.50;;
72464;SDS011;60471;52.150;4.508;2023-07-24T10:37:39;10.07;;;3.63;;
72464;SDS011;60471;52.150;4.508;2023-07-24T10:40:05;12.40;;;4.60;;
72464;SDS011;60471;52.150;4.508;2023-07-24T10:42:32;12.75;;;3.85;;
72464;SDS011;60471;52.150;4.508;2023-07-24T10:45:06;10.13;;;4.00;;
72464;SDS011;60471;52.150;4.508;2023-07-24T10:47:33;14.30;;;4.30;;
72464;SDS011;60471;52.150;4.508;2023-07-24T10:50:00;11.18;;;3.85;;
72464;SDS011;60471;52.150;4.508;2023-07-24T10:52:29;11.27;;;4.00;;
72464;SDS011;60471;52.150;4.508;2023-07-24T10:55:02;12.48;;;4.10;;
72464;SDS011;60471;52.150;4.508;2023-07-24T10:57:29;12.68;;;4.00;;
72464;SDS011;60471;52.150;4.508;2023-07-24T10:59:56;12.57;;;3.63;;
72464;SDS011;60471;52.150;4.508;2023-07-24T11:02:22;11.25;;;4.22;;
72464;SDS011;60471;52.150;4.508;2023-07-24T11:04:49;10.77;;;3.40;;
72464;SDS011;60471;52.150;4.508;2023-07-24T11:07:15;11.13;;;3.72;;
72464;SDS011;60471;52.150;4.508;2023-07-24T11:09:42;15.20;;;3.85;;
72464;SDS011;60471;52.150;4.508;2023-07-24T11:12:13;8.30;;;2.58;;
72464;SDS011;60471;52.150;4.508;2023-07-24T11:14:50;9.90;;;2.80;;
72464;SDS011;60471;52.150;4.508;2023-07-24T11:17:20;11.15;;;3.42;;
72464;SDS011;60471;52.150;4.508;2023-07-24T11:19:47;9.68;;;2.90;;
72464;SDS011;60471;52.150;4.508;2023-07-24T11:22:13;10.88;;;3.30;;
72464;SDS011;60471;52.150;4.508;2023-07-24T11:24:45;13.02;;;3.58;;
72464;SDS011;60471;52.150;4.508;2023-07-24T11:27:14;8.70;;;2.15;;
72464;SDS011;60471;52.150;4.508;2023-07-24T11:29:49;8.18;;;2.17;;
72464;SDS011;60471;52.150;4.508;2023-07-24T11:32:22;9.43;;;2.40;;
72464;SDS011;60471;52.150;4.508;2023-07-24T11:34:49;7.40;;;2.08;;
72464;SDS011;60471;52.150;4.508;2023-07-24T11:37:17;6.13;;;2.20;;
72464;SDS011;60471;52.150;4.508;2023-07-24T11:39:57;5.60;;;1.80;;
72464;SDS011;60471;52.150;4.508;2023-07-24T11:42:36;11.52;;;2.00;;
72464;SDS011;60471;52.150;4.508;2023-07-24T11:45:04;7.18;;;2.25;;
72464;SDS011;60471;52.150;4.508;2023-07-24T11:47:31;8.27;;;2.00;;
72464;SDS011;60471;52.150;4.508;2023-07-24T11:50:07;9.73;;;2.28;;
72464;SDS011;60471;52.150;4.508;2023-07-24T11:52:44;10.93;;;2.08;;
72464;SDS011;60471;52.150;4.508;2023-07-24T11:55:16;7.00;;;2.03;;
72464;SDS011;60471;52.150;4.508;2023-07-24T11:57:58;7.05;;;1.80;;
72464;SDS011;60471;52.150;4.508;2023-07-24T12:00:26;6.10;;;1.92;;
72464;SDS011;60471;52.150;4.508;2023-07-24T12:02:58;5.50;;;1.65;;
72464;SDS011;60471;52.150;4.508;2023-07-24T12:05:26;5.80;;;1.60;;
72464;SDS011;60471;52.150;4.508;2023-07-24T12:07:53;5.32;;;1.50;;
72464;SDS011;60471;52.150;4.508;2023-07-24T12:10:27;7.72;;;1.60;;
72464;SDS011;60471;52.150;4.508;2023-07-24T12:12:54;6.30;;;1.75;;
72464;SDS011;60471;52.150;4.508;2023-07-24T12:15:25;7.15;;;1.70;;
72464;SDS011;60471;52.150;4.508;2023-07-24T12:17:52;9.10;;;1.85;;
72464;SDS011;60471;52.150;4.508;2023-07-24T12:20:18;6.93;;;1.50;;
72464;SDS011;60471;52.150;4.508;2023-07-24T12:22:45;8.23;;;1.90;;
72464;SDS011;60471;52.150;4.508;2023-07-24T12:25:11;5.78;;;1.60;;
72464;SDS011;60471;52.150;4.508;2023-07-24T12:27:38;9.32;;;1.80;;
72464;SDS011;60471;52.150;4.508;2023-07-24T12:30:06;7.75;;;1.40;;
72464;SDS011;60471;52.150;4.508;2023-07-24T12:32:34;8.55;;;1.60;;
72464;SDS011;60471;52.150;4.508;2023-07-24T12:35:00;9.30;;;1.50;;
72464;SDS011;60471;52.150;4.508;2023-07-24T12:37:27;6.78;;;1.40;;
72464;SDS011;60471;52.150;4.508;2023-07-24T12:39:54;7.45;;;1.65;;
72464;SDS011;60471;52.150;4.508;2023-07-24T12:42:20;9.85;;;1.83;;
72464;SDS011;60471;52.150;4.508;2023-07-24T12:44:46;9.73;;;1.80;;
72464;SDS011;60471;52.150;4.508;2023-07-24T12:47:12;9.15;;;1.73;;
72464;SDS011;60471;52.150;4.508;2023-07-24T12:49:39;9.48;;;2.10;;
72464;SDS011;60471;52.150;4.508;2023-07-24T12:52:05;11.35;;;2.42;;
72464;SDS011;60471;52.150;4.508;2023-07-24T12:54:33;9.73;;;2.00;;
72464;SDS011;60471;52.150;4.508;2023-07-24T12:57:01;8.10;;;1.83;;
72464;SDS011;60471;52.150;4.508;2023-07-24T12:59:28;10.63;;;2.00;;
72464;SDS011;60471;52.150;4.508;2023-07-24T13:01:54;8.07;;;1.63;;
72464;SDS011;60471;52.150;4.508;2023-07-24T13:04:22;11.52;;;1.80;;
72464;SDS011;60471;52.150;4.508;2023-07-24T13:06:49;8.77;;;1.55;;
72464;SDS011;60471;52.150;4.508;2023-07-24T13:09:15;6.55;;;1.73;;
72464;SDS011;60471;52.150;4.508;2023-07-24T13:11:43;10.23;;;1.83;;
72464;SDS011;60471;52.150;4.508;2023-07-24T13:14:12;9.18;;;1.90;;
72464;SDS011;60471;52.150;4.508;2023-07-24T13:16:38;12.35;;;1.50;;
72464;SDS011;60471;52.150;4.508;2023-07-24T13:19:04;10.27;;;1.70;;
72464;SDS011;60471;52.150;4.508;2023-07-24T13:21:30;10.65;;;1.70;;
72464;SDS011;60471;52.150;4.508;2023-07-24T13:23:57;8.70;;;1.65;;
72464;SDS011;60471;52.150;4.508;2023-07-24T13:26:23;12.23;;;2.10;;
72464;SDS011;60471;52.150;4.508;2023-07-24T13:28:49;11.05;;;2.00;;
72464;SDS011;60471;52.150;4.508;2023-07-24T13:31:19;10.50;;;2.10;;
72464;SDS011;60471;52.150;4.508;2023-07-24T13:33:47;9.73;;;1.48;;
72464;SDS011;60471;52.150;4.508;2023-07-24T13:36:13;10.88;;;2.05;;
72464;SDS011;60471;52.150;4.508;2023-07-24T13:38:40;12.73;;;2.00;;
72464;SDS011;60471;52.150;4.508;2023-07-24T13:41:07;10.13;;;1.80;;
72464;SDS011;60471;52.150;4.508;2023-07-24T13:43:34;13.75;;;2.42;;
72464;SDS011;60471;52.150;4.508;2023-07-24T13:46:00;10.75;;;1.65;;
72464;SDS011;60471;52.150;4.508;2023-07-24T13:48:30;14.35;;;1.90;;
72464;SDS011;60471;52.150;4.508;2023-07-24T13:50:57;13.02;;;2.00;;
72464;SDS011;60471;52.150;4.508;2023-07-24T13:53:23;13.43;;;2.50;;
72464;SDS011;60471;52.150;4.508;2023-07-24T13:55:50;14.93;;;2.17;;
72464;SDS011;60471;52.150;4.508;2023-07-24T13:58:16;13.80;;;1.83;;
72464;SDS011;60471;52.150;4.508;2023-07-24T14:00:43;12.98;;;2.13;;
72464;SDS011;60471;52.150;4.508;2023-07-24T14:03:09;11.07;;;1.95;;
72464;SDS011;60471;52.150;4.508;2023-07-24T14:05:35;10.35;;;2.00;;
72464;SDS011;60471;52.150;4.508;2023-07-24T14:08:04;11.52;;;2.28;;
72464;SDS011;60471;52.150;4.508;2023-07-24T14:10:31;11.73;;;2.25;;
72464;SDS011;60471;52.150;4.508;2023-07-24T14:12:57;10.52;;;1.63;;
72464;SDS011;60471;52.150;4.508;2023-07-24T14:15:23;9.93;;;1.83;;
72464;SDS011;60471;52.150;4.508;2023-07-24T14:17:50;10.27;;;1.48;;
72464;SDS011;60471;52.150;4.508;2023-07-24T14:20:16;8.82;;;1.80;;
72464;SDS011;60471;52.150;4.508;2023-07-24T14:22:43;11.90;;;1.77;;
72464;SDS011;60471;52.150;4.508;2023-07-24T14:25:09;8.35;;;1.55;;
72464;SDS011;60471;52.150;4.508;2023-07-24T14:27:35;14.60;;;1.67;;
72464;SDS011;60471;52.150;4.508;2023-07-24T14:30:02;9.95;;;1.65;;
72464;SDS011;60471;52.150;4.508;2023-07-24T14:32:28;7.97;;;1.25;;
72464;SDS011;60471;52.150;4.508;2023-07-24T14:34:55;6.13;;;1.20;;
72464;SDS011;60471;52.150;4.508;2023-07-24T14:37:21;9.70;;;1.30;;
72464;SDS011;60471;52.150;4.508;2023-07-24T14:39:47;7.30;;;1.25;;
72464;SDS011;60471;52.150;4.508;2023-07-24T14:42:15;6.63;;;1.10;;
72464;SDS011;60471;52.150;4.508;2023-07-24T14:44:41;6.32;;;1.08;;